Time;durP1;ratioP1;P1;durP2;ratioP2;P2;SDS_P1;SDS_P2;PMS_P1;PMS_P2;Temp;Humidity;BMP_temperature;BMP_pressure;BME280_temperature;BME280_humidity;BME280_pressure;Samples;Min_cycle;Max_cycle;Signal;HPM_P1;HPM_P2
2022/08/02 00:00:14;;;;;;;7.90;2.65;;;;;;;17.04;76.16;100932.97;4990250;28;20708;-74
2022/08/02 00:03:17;;;;;;;6.38;2.75;;;;;;;17.22;75.05;100930.75;5005926;28;20044;-74
2022/08/02 00:06:21;;;;;;;5.32;2.70;;;;;;;17.15;76.13;100932.19;5009809;28;20510;-74
2022/08/02 00:09:24;;;;;;;6.90;2.85;;;;;;;17.07;75.90;100926.59;5009517;28;20095;-74
2022/08/02 00:12:28;;;;;;;3.92;2.83;;;;;;;16.99;75.89;100935.09;5010530;28;20046;-74
2022/08/02 00:15:31;;;;;;;5.38;2.47;;;;;;;16.90;76.15;100936.59;5010291;28;20053;-74
2022/08/02 00:18:34;;;;;;;4.50;2.58;;;;;;;16.94;76.09;100927.50;5008574;28;20041;-75
2022/08/02 00:21:37;;;;;;;4.32;2.88;;;;;;;16.92;75.96;100934.69;5009020;28;20048;-74
2022/08/02 00:24:41;;;;;;;8.98;3.78;;;;;;;16.86;76.08;100929.84;5008252;28;20053;-75
2022/08/02 00:27:44;;;;;;;6.07;2.58;;;;;;;16.92;76.02;100929.41;5008900;28;20137;-75
2022/08/02 00:30:47;;;;;;;3.33;2.53;;;;;;;16.91;75.93;100929.50;5009814;28;20083;-74
2022/08/02 00:33:52;;;;;;;5.32;3.63;;;;;;;16.89;76.07;100928.78;5009348;28;20694;-75
2022/08/02 00:37:04;;;;;;;5.45;2.80;;;;;;;16.89;76.17;100934.06;5009295;28;20049;-75
2022/08/02 00:40:09;;;;;;;5.60;2.65;;;;;;;16.75;77.05;100937.69;5008845;28;20460;-74
2022/08/02 00:43:12;;;;;;;3.90;2.78;;;;;;;16.73;76.99;100944.88;5008484;28;20139;-74
2022/08/02 00:46:18;;;;;;;3.42;2.55;;;;;;;16.68;77.15;100939.06;5008675;28;20052;-75
2022/08/02 00:49:21;;;;;;;4.45;2.60;;;;;;;16.70;76.92;100938.00;5008755;28;20048;-75
2022/08/02 00:52:24;;;;;;;5.38;3.00;;;;;;;16.56;77.39;100939.91;5009080;28;20045;-74
2022/08/02 00:55:28;;;;;;;5.50;3.25;;;;;;;16.60;77.17;100941.41;5009292;28;20055;-74
2022/08/02 00:58:32;;;;;;;3.80;2.72;;;;;;;16.60;77.17;100944.06;5009289;28;20104;-75
2022/08/02 01:01:38;;;;;;;3.45;2.65;;;;;;;16.57;77.03;100944.28;5008873;28;20049;-75
2022/08/02 01:04:41;;;;;;;3.85;2.72;;;;;;;16.38;77.52;100953.47;4996693;28;20134;-75
2022/08/02 01:07:45;;;;;;;3.30;2.63;;;;;;;16.42;77.57;100935.63;5009059;28;20049;-74
2022/08/02 01:10:48;;;;;;;4.60;3.15;;;;;;;16.32;77.62;100932.78;5009007;28;20045;-74
2022/08/02 01:13:52;;;;;;;5.20;2.67;;;;;;;16.27;77.47;100940.16;5009117;28;20044;-74
2022/08/02 01:17:19;;;;;;;6.68;3.17;;;;;;;16.38;77.37;100935.00;4997079;28;20460;-74
2022/08/02 01:20:42;;;;;;;5.45;2.80;;;;;;;16.28;77.74;100934.81;5008770;28;20041;-74
2022/08/02 01:23:51;;;;;;;4.75;2.92;;;;;;;16.20;78.30;100931.84;4989849;28;20056;-74
2022/08/02 01:27:11;;;;;;;4.25;2.92;;;;;;;16.19;78.20;100934.59;5009233;28;20059;-73
2022/08/02 01:30:16;;;;;;;3.75;2.90;;;;;;;16.13;78.31;100940.28;5010429;28;20068;-74
2022/08/02 01:33:21;;;;;;;5.28;2.83;;;;;;;16.16;78.72;100940.09;5012695;28;20092;-74
2022/08/02 01:36:30;;;;;;;4.88;3.05;;;;;;;16.20;78.61;100938.91;5012501;28;20049;-76
2022/08/02 01:39:37;;;;;;;4.93;3.08;;;;;;;16.02;79.10;100933.13;5012872;28;20049;-74
2022/08/02 01:42:48;;;;;;;5.45;2.80;;;;;;;16.04;78.75;100931.22;5012737;28;20053;-75
2022/08/02 01:45:55;;;;;;;3.78;2.83;;;;;;;16.11;78.63;100936.91;5012504;28;20055;-75
2022/08/02 01:49:02;;;;;;;5.05;3.33;;;;;;;16.04;78.75;100937.31;5013098;28;20445;-74
2022/08/02 01:52:21;;;;;;;3.95;2.80;;;;;;;16.15;77.90;100939.25;5012711;28;20609;-73
2022/08/02 01:55:27;;;;;;;6.10;2.90;;;;;;;16.05;78.32;100938.19;5012160;28;20405;-74
2022/08/02 01:58:35;;;;;;;3.35;2.42;;;;;;;16.04;78.52;100942.59;5012080;28;20414;-74
2022/08/02 02:01:40;;;;;;;5.25;2.90;;;;;;;15.91;79.07;100933.84;5012046;28;20068;-74
2022/08/02 02:04:45;;;;;;;5.63;2.72;;;;;;;15.80;79.39;100933.75;5012065;28;20107;-74
2022/08/02 02:07:54;;;;;;;4.68;3.00;;;;;;;15.85;79.23;100942.16;5012472;28;20068;-73
2022/08/02 02:10:59;;;;;;;3.97;2.67;;;;;;;15.91;79.07;100941.75;5014475;28;20516;-75
2022/08/02 02:14:06;;;;;;;6.75;3.10;;;;;;;15.77;79.44;100949.78;4993189;28;20462;-75
2022/08/02 02:17:12;;;;;;;4.60;3.00;;;;;;;15.80;79.42;100949.56;4981094;28;20061;-74
2022/08/02 02:20:18;;;;;;;4.38;3.25;;;;;;;15.69;79.68;100950.25;4992524;28;20049;-74
2022/08/02 02:23:22;;;;;;;6.15;3.15;;;;;;;15.72;79.38;100946.59;4663017;28;10000620;-74
2022/08/02 02:26:27;;;;;;;4.03;3.08;;;;;;;15.59;80.03;100949.16;4996920;28;20057;-74
2022/08/02 02:29:35;;;;;;;5.57;3.28;;;;;;;15.61;80.01;100943.81;5009027;28;20053;-75
2022/08/02 02:32:40;;;;;;;4.13;3.03;;;;;;;15.57;80.41;100949.28;5009296;28;20095;-74
2022/08/02 02:35:46;;;;;;;5.25;2.78;;;;;;;15.58;79.93;100940.41;4996316;28;20056;-74
2022/08/02 02:38:51;;;;;;;4.97;2.60;;;;;;;15.58;79.62;100943.06;5009315;28;20134;-74
2022/08/02 02:42:00;;;;;;;2.95;2.40;;;;;;;15.62;79.83;100940.22;5008424;28;20143;-74
2022/08/02 02:45:04;;;;;;;5.75;3.08;;;;;;;15.52;80.16;100939.97;5009339;28;20057;-73
2022/08/02 02:48:09;;;;;;;3.20;2.40;;;;;;;15.61;79.66;100938.53;5009378;28;20517;-73
2022/08/02 02:51:13;;;;;;;3.78;2.92;;;;;;;15.63;79.63;100926.06;5008946;28;20060;-74
2022/08/02 02:54:18;;;;;;;6.65;2.90;;;;;;;15.69;79.29;100925.69;4996790;28;20041;-74
2022/08/02 02:57:21;;;;;;;5.15;2.83;;;;;;;15.58;79.96;100935.16;4996298;28;20053;-74
2022/08/02 03:03:48;;;;;;;3.80;2.53;;;;;;;15.54;79.84;100944.22;5009401;28;20053;-74
2022/08/02 03:06:51;;;;;;;4.18;3.05;;;;;;;15.45;79.82;100944.81;5008405;28;20133;-74
2022/08/02 03:09:55;;;;;;;3.40;2.70;;;;;;;15.58;79.20;100940.41;5007955;28;20049;-74
2022/08/02 03:12:59;;;;;;;4.60;2.85;;;;;;;15.40;79.83;100936.34;5008478;28;20084;-74
2022/08/02 03:16:03;;;;;;;3.88;3.10;;;;;;;15.26;80.09;100955.72;5008485;28;20161;-74
2022/08/02 03:19:06;;;;;;;4.43;3.30;;;;;;;15.25;80.25;100947.88;5008947;28;20108;-74
2022/08/02 03:22:10;;;;;;;4.05;2.83;;;;;;;15.18;80.34;100944.81;5008093;28;20056;-74
2022/08/02 03:25:15;;;;;;;3.60;2.72;;;;;;;15.13;80.46;100940.81;4996166;28;20056;-75
2022/08/02 03:28:20;;;;;;;3.65;2.83;;;;;;;15.06;80.59;100941.22;5007702;28;20108;-74
2022/08/02 03:31:26;;;;;;;4.68;2.70;;;;;;;15.17;80.02;100935.22;5018650;28;20539;-74
2022/08/02 03:34:29;;;;;;;6.63;2.65;;;;;;;15.24;79.66;100931.25;5027314;28;20052;-75
2022/08/02 03:37:34;;;;;;;4.15;3.20;;;;;;;15.25;79.53;100932.09;5027959;28;20524;-74
2022/08/02 03:40:38;;;;;;;4.50;2.80;;;;;;;15.18;79.33;100929.00;5028347;28;20120;-74
2022/08/02 03:43:47;;;;;;;3.92;2.97;;;;;;;14.99;80.09;100931.16;5004783;28;20713;-75
2022/08/02 03:46:51;;;;;;;4.18;3.35;;;;;;;15.00;80.34;100930.22;4663543;28;10000011;-74
2022/08/02 03:49:55;;;;;;;5.28;3.13;;;;;;;14.95;79.97;100925.22;5008041;28;20044;-74
2022/08/02 03:52:58;;;;;;;3.88;3.08;;;;;;;14.85;80.33;100930.25;5008938;28;20456;-74
2022/08/02 03:56:03;;;;;;;5.43;2.88;;;;;;;15.02;79.88;100926.53;5009817;28;20057;-74
2022/08/02 03:59:12;;;;;;;3.90;2.78;;;;;;;14.92;79.96;100917.53;5009823;28;20044;-74
2022/08/02 04:02:16;;;;;;;4.13;3.65;;;;;;;14.82;80.22;100929.59;5009983;28;20048;-74
2022/08/02 04:05:19;;;;;;;5.55;2.65;;;;;;;14.82;80.28;100932.22;4998196;28;20139;-74
2022/08/02 04:08:22;;;;;;;5.90;2.80;;;;;;;15.02;79.43;100937.06;4997954;28;20583;-74
2022/08/02 04:11:31;;;;;;;5.47;2.70;;;;;;;15.24;78.20;100933.03;5009670;28;20044;-74
2022/08/02 04:14:36;;;;;;;3.03;2.30;;;;;;;15.31;77.12;100936.97;5009616;28;20627;-74
2022/08/02 04:17:44;;;;;;;6.28;2.35;;;;;;;15.52;75.93;100929.44;5009881;28;20044;-74
2022/08/02 04:20:50;;;;;;;3.33;2.45;;;;;;;15.41;76.82;100932.78;5009698;28;20072;-74
2022/08/02 04:23:55;;;;;;;3.72;2.85;;;;;;;15.09;78.78;100940.13;5009335;28;20052;-74
2022/08/02 04:26:59;;;;;;;8.30;2.85;;;;;;;15.27;78.36;100940.75;5009530;28;20064;-75
2022/08/02 04:30:06;;;;;;;4.20;2.88;;;;;;;15.46;76.99;100949.13;5009721;28;20120;-75
2022/08/02 04:33:11;;;;;;;3.83;2.85;;;;;;;15.22;78.03;100950.72;5009792;28;20092;-75
2022/08/02 04:36:14;;;;;;;7.50;2.95;;;;;;;15.01;79.46;100952.97;5009653;28;20108;-75
2022/08/02 04:39:18;;;;;;;4.93;2.70;;;;;;;14.92;80.20;100957.03;5009461;28;20144;-75
2022/08/02 04:42:23;;;;;;;4.68;3.08;;;;;;;14.98;79.85;100951.38;4996930;28;20049;-75
2022/08/02 04:45:29;;;;;;;5.43;2.80;;;;;;;14.95;80.12;100945.47;5009329;28;20073;-75
2022/08/02 04:48:33;;;;;;;5.45;3.38;;;;;;;14.93;80.54;100953.44;5008820;28;20044;-77
2022/08/02 04:51:38;;;;;;;3.45;2.72;;;;;;;14.90;80.62;100958.94;4996286;28;20040;-70
2022/08/02 04:54:42;;;;;;;4.45;3.35;;;;;;;14.96;80.83;100952.41;5008895;28;20127;-68
2022/08/02 04:57:54;;;;;;;5.82;2.80;;;;;;;14.92;81.16;100954.41;5010083;28;20057;-67
2022/08/02 05:00:57;;;;;;;6.40;4.63;;;;;;;15.03;80.29;100959.84;5009586;28;20045;-67
2022/08/02 05:04:01;;;;;;;6.60;3.42;;;;;;;14.88;81.16;100959.00;4995564;28;20104;-71
2022/08/02 05:07:04;;;;;;;5.72;2.92;;;;;;;15.01;80.93;100961.72;5007772;28;20180;-72
2022/08/02 05:10:09;;;;;;;4.55;3.42;;;;;;;14.99;80.72;100963.59;5008370;28;20461;-73
2022/08/02 05:13:12;;;;;;;8.90;3.90;;;;;;;15.08;80.32;100957.72;5007528;28;20045;-74
2022/08/02 05:16:16;;;;;;;9.32;2.88;;;;;;;15.28;79.34;100964.38;5007862;28;20061;-73
2022/08/02 05:19:19;;;;;;;9.57;3.40;;;;;;;15.25;79.35;100975.09;5008307;28;20080;-73
2022/08/02 05:22:22;;;;;;;17.42;3.22;;;;;;;15.43;78.47;100967.78;5007529;28;20071;-74
2022/08/02 05:25:26;;;;;;;13.48;3.85;;;;;;;15.52;78.32;100967.19;5006961;28;20048;-76
2022/08/02 05:28:29;;;;;;;11.55;3.00;;;;;;;15.70;77.76;100962.53;5008480;28;20064;-74
2022/08/02 05:31:32;;;;;;;6.55;2.75;;;;;;;15.75;76.59;100959.56;5008516;28;20049;-75
2022/08/02 05:34:36;;;;;;;3.55;2.72;;;;;;;15.86;75.99;100964.97;5008373;28;20049;-75
2022/08/02 05:37:42;;;;;;;3.88;2.33;;;;;;;15.83;76.28;100964.34;5008370;28;20104;-75
2022/08/02 05:40:45;;;;;;;5.18;3.05;;;;;;;15.86;76.48;100970.25;5008478;28;20053;-75
2022/08/02 05:43:48;;;;;;;12.90;3.15;;;;;;;15.62;77.71;100963.94;5008345;28;20111;-75
2022/08/02 05:46:52;;;;;;;5.10;2.67;;;;;;;15.87;76.70;100974.56;5008827;28;20788;-74
2022/08/02 05:49:58;;;;;;;7.60;3.67;;;;;;;15.84;77.59;100981.84;5008919;28;20185;-74
2022/08/02 05:53:08;;;;;;;10.55;3.15;;;;;;;15.68;78.46;100976.75;4996530;28;20096;-74
2022/08/02 05:56:32;;;;;;;6.30;3.40;;;;;;;15.80;77.77;100970.66;5007643;28;20045;-74
2022/08/02 05:59:39;;;;;;;5.15;2.65;;;;;;;15.96;77.04;100979.22;5008865;28;20037;-74
2022/08/02 06:03:17;;;;;;;12.48;3.10;;;;;;;16.04;76.95;100990.09;5009151;28;20053;-74
2022/08/02 06:06:24;;;;;;;8.00;3.00;;;;;;;16.10;76.69;100980.06;5008316;28;20489;-74
2022/08/02 06:09:28;;;;;;;5.30;2.97;;;;;;;16.25;75.87;100984.31;5008632;28;20049;-74
2022/08/02 06:12:37;;;;;;;9.48;2.92;;;;;;;16.24;76.34;100979.97;5008280;28;20060;-74
2022/08/02 06:15:41;;;;;;;5.72;3.08;;;;;;;16.47;75.26;100984.50;5009264;28;20131;-74
2022/08/02 06:18:45;;;;;;;13.00;3.67;;;;;;;16.58;75.20;100977.63;5012461;28;20107;-75
2022/08/02 06:21:48;;;;;;;9.27;3.13;;;;;;;16.40;76.83;100975.34;5000172;28;20096;-74
2022/08/02 06:24:54;;;;;;;12.40;3.63;;;;;;;16.26;78.29;100972.78;5011759;28;20057;-75
2022/08/02 06:28:08;;;;;;;12.93;3.78;;;;;;;16.49;77.19;100982.59;5011686;28;20156;-75
2022/08/02 06:31:13;;;;;;;8.95;3.10;;;;;;;16.45;77.85;100983.75;5011917;28;20045;-75
2022/08/02 06:34:18;;;;;;;10.98;3.15;;;;;;;16.58;77.66;100980.28;4998814;28;20149;-74
2022/08/02 06:38:00;;;;;;;17.98;4.00;;;;;;;16.65;78.52;100963.03;5011035;28;20044;-74
2022/08/02 06:41:06;;;;;;;10.88;4.32;;;;;;;16.74;78.35;100957.09;4954399;28;20514;-75
2022/08/02 06:44:10;;;;;;;12.85;3.83;;;;;;;16.85;77.93;100959.88;5011277;28;20064;-74
2022/08/02 06:47:13;;;;;;;15.35;4.15;;;;;;;17.09;77.33;100956.41;4999644;28;20674;-75
2022/08/02 06:50:17;;;;;;;11.80;3.67;;;;;;;17.26;76.82;100958.66;4998993;28;20088;-75
2022/08/02 06:53:20;;;;;;;8.10;3.33;;;;;;;17.43;75.70;100954.78;5011063;28;20068;-75
2022/08/02 06:56:24;;;;;;;10.02;3.85;;;;;;;17.56;75.17;100954.69;5010171;28;20457;-75
2022/08/02 06:59:27;;;;;;;8.15;3.30;;;;;;;17.71;74.76;100953.56;5011523;28;20060;-75
2022/08/02 07:02:31;;;;;;;10.82;3.53;;;;;;;17.78;74.62;100953.97;4998723;28;20048;-75
2022/08/02 07:05:34;;;;;;;11.43;3.30;;;;;;;17.91;74.98;100943.28;5010076;28;20065;-75
2022/08/02 07:08:38;;;;;;;7.38;3.03;;;;;;;17.99;74.69;100954.13;5010737;28;20053;-75
2022/08/02 07:11:41;;;;;;;11.35;3.40;;;;;;;18.06;74.35;100942.09;4999515;28;20057;-76
2022/08/02 07:14:45;;;;;;;7.43;3.22;;;;;;;18.21;74.29;100938.25;5011325;28;20132;-75
2022/08/02 07:17:48;;;;;;;7.07;3.13;;;;;;;18.20;74.21;100939.25;5009914;28;20057;-75
2022/08/02 07:20:52;;;;;;;12.23;3.55;;;;;;;18.37;73.67;100932.63;5010476;28;20096;-75
2022/08/02 07:23:58;;;;;;;5.03;3.20;;;;;;;18.52;73.24;100942.00;5010542;28;20041;-76
2022/08/02 07:27:01;;;;;;;9.20;3.40;;;;;;;18.64;72.54;100934.91;5010130;28;20045;-75
2022/08/02 07:30:05;;;;;;;7.90;3.30;;;;;;;18.73;72.35;100920.97;5010492;28;20061;-75
2022/08/02 07:33:09;;;;;;;5.63;2.75;;;;;;;18.89;71.68;100928.53;5010516;28;20048;-75
2022/08/02 07:36:12;;;;;;;5.28;2.63;;;;;;;19.02;71.89;100920.41;5010124;28;20053;-75
2022/08/02 07:39:16;;;;;;;6.88;2.85;;;;;;;19.14;71.49;100921.19;5009994;28;20040;-75
2022/08/02 07:42:19;;;;;;;5.93;2.80;;;;;;;19.29;71.14;100915.47;5010591;28;20469;-74
2022/08/02 07:45:24;;;;;;;4.85;2.40;;;;;;;19.41;70.10;100908.31;5010480;28;20172;-74
2022/08/02 07:48:27;;;;;;;5.85;3.10;;;;;;;19.45;69.90;100911.56;5009951;28;20091;-74
2022/08/02 07:51:32;;;;;;;6.55;2.78;;;;;;;19.55;69.16;100906.31;5010028;28;20103;-74
2022/08/02 07:54:35;;;;;;;6.82;2.28;;;;;;;19.63;68.63;100888.81;5009799;28;20044;-74
2022/08/02 07:57:39;;;;;;;6.00;2.38;;;;;;;19.76;67.88;100888.63;5010259;28;20129;-74
2022/08/02 08:00:45;;;;;;;5.38;2.13;;;;;;;19.83;66.84;100896.91;5010107;28;20044;-75
2022/08/02 08:03:49;;;;;;;5.47;1.95;;;;;;;19.95;65.53;100899.34;5009613;28;20116;-74
2022/08/02 08:06:52;;;;;;;8.07;1.60;;;;;;;20.15;63.62;100905.59;5009928;28;20052;-74
2022/08/02 08:09:57;;;;;;;5.75;2.03;;;;;;;20.25;63.54;100905.63;4997478;28;20088;-74
2022/08/02 08:13:01;;;;;;;3.47;1.45;;;;;;;20.41;61.74;100897.16;5010387;28;20044;-73
2022/08/02 08:16:05;;;;;;;4.35;1.70;;;;;;;20.46;57.96;100897.59;5017010;28;20067;-73
2022/08/02 08:19:08;;;;;;;5.28;1.63;;;;;;;20.55;55.14;100898.63;5017112;28;20048;-74
2022/08/02 08:22:12;;;;;;;8.63;1.42;;;;;;;20.60;55.98;100883.97;5013722;28;20049;-76
2022/08/02 08:25:16;;;;;;;5.38;1.17;;;;;;;20.72;55.19;100881.22;5009183;28;20681;-75
2022/08/02 08:28:20;;;;;;;3.08;0.98;;;;;;;20.83;57.29;100883.72;5009722;28;20127;-75
2022/08/02 08:31:24;;;;;;;4.72;1.38;;;;;;;20.93;56.01;100879.28;5009276;28;20037;-73
2022/08/02 08:34:30;;;;;;;7.10;1.23;;;;;;;21.10;53.73;100880.41;5009251;28;20122;-74
2022/08/02 08:37:37;;;;;;;3.65;1.00;;;;;;;21.27;51.62;100871.72;5009892;28;20048;-74
2022/08/02 08:40:41;;;;;;;3.05;0.90;;;;;;;21.47;50.45;100869.91;5008978;28;20100;-73
2022/08/02 08:43:45;;;;;;;7.60;1.05;;;;;;;21.57;51.03;100867.25;5009131;28;20552;-74
2022/08/02 08:46:49;;;;;;;5.70;1.00;;;;;;;21.87;50.90;100868.00;5009278;28;20541;-72
2022/08/02 08:49:56;;;;;;;3.58;1.05;;;;;;;22.05;51.90;100866.25;5009497;28;20048;-73
2022/08/02 08:53:05;;;;;;;4.55;1.10;;;;;;;22.10;51.67;100868.47;5009288;28;20139;-74
2022/08/02 08:56:11;;;;;;;2.15;0.95;;;;;;;22.15;50.04;100872.38;5008829;28;20044;-75
2022/08/02 08:59:14;;;;;;;3.58;1.08;;;;;;;22.14;50.12;100869.84;5009518;28;20052;-73
2022/08/02 09:02:18;;;;;;;3.00;0.90;;;;;;;22.21;50.06;100861.16;5008911;28;20053;-74
2022/08/02 09:05:21;;;;;;;4.80;0.80;;;;;;;22.52;48.38;100855.53;5008720;28;20041;-66
2022/08/02 09:08:25;;;;;;;4.13;0.60;;;;;;;22.61;49.73;100861.78;5004133;28;20049;-66
2022/08/02 09:11:28;;;;;;;2.88;1.27;;;;;;;22.63;47.95;100854.50;5002892;28;20095;-67
2022/08/02 09:14:31;;;;;;;2.30;0.90;;;;;;;22.73;48.55;100855.25;5020858;28;20535;-65
2022/08/02 09:17:52;;;;;;;2.65;1.27;;;;;;;22.51;50.21;100852.03;5027446;28;20052;-66
2022/08/02 09:21:01;;;;;;;3.20;0.95;;;;;;;22.54;49.68;100848.22;5028567;28;20106;-66
2022/08/02 09:24:15;;;;;;;1.55;0.57;;;;;;;23.12;43.70;100857.66;5028514;28;20049;-65
2022/08/02 09:27:21;;;;;;;1.92;0.70;;;;;;;23.19;41.17;100846.19;5028174;28;20048;-67
2022/08/02 09:30:27;;;;;;;3.35;0.77;;;;;;;23.24;40.76;100851.09;5028749;28;20052;-67
2022/08/02 09:33:31;;;;;;;5.47;0.60;;;;;;;23.28;40.83;100849.78;5028246;28;20095;-68
2022/08/02 09:36:41;;;;;;;1.98;0.60;;;;;;;23.32;41.24;100848.47;5016734;28;20044;-71
2022/08/02 09:39:45;;;;;;;2.53;0.70;;;;;;;23.21;41.27;100852.22;5029002;28;20111;-73
2022/08/02 09:42:57;;;;;;;4.38;0.88;;;;;;;23.63;40.83;100842.69;5007900;28;20044;-72
2022/08/02 09:46:17;;;;;;;;;;;;;;;23.36;42.79;100835.69;4989893;28;20568;-71
2022/08/02 09:49:21;;;;;;;1.75;0.70;;;;;;;24.00;40.74;100822.91;4988476;28;20424;-72
2022/08/02 09:52:29;;;;;;;3.90;0.80;;;;;;;23.84;42.55;100824.50;4992866;28;20045;-81
2022/08/02 09:55:33;;;;;;;2.78;1.10;;;;;;;24.21;40.44;100827.81;4993007;28;20096;-70
2022/08/02 09:58:38;;;;;;;2.63;0.85;;;;;;;24.24;40.37;100825.66;5015978;28;20150;-70
2022/08/02 10:01:43;;;;;;;1.83;0.90;;;;;;;24.45;38.55;100829.75;5012590;28;20072;-71
2022/08/02 10:04:47;;;;;;;2.75;0.90;;;;;;;24.27;39.12;100830.66;5011741;28;20069;-70
2022/08/02 10:07:50;;;;;;;2.38;0.80;;;;;;;24.12;40.39;100826.94;5012004;28;20045;-71
2022/08/02 10:11:01;;;;;;;3.20;0.70;;;;;;;24.09;39.50;100817.44;5012723;28;20528;-81
2022/08/02 10:14:10;;;;;;;4.22;1.00;;;;;;;24.35;41.22;100820.03;5012526;28;20049;-69
2022/08/02 10:17:14;;;;;;;2.10;0.85;;;;;;;24.54;39.72;100815.44;5012677;28;20463;-69
2022/08/02 10:20:18;;;;;;;2.13;0.80;;;;;;;24.53;40.25;100808.38;5013155;28;20052;-68
2022/08/02 10:23:25;;;;;;;3.65;0.95;;;;;;;24.79;39.57;100803.75;5020322;28;20096;-71
2022/08/02 10:26:31;;;;;;;3.40;0.60;;;;;;;24.80;41.34;100799.25;5019939;28;20096;-69
2022/08/02 10:29:36;;;;;;;2.15;1.00;;;;;;;25.23;39.21;100806.09;5031716;28;20094;-69
2022/08/02 10:32:44;;;;;;;2.15;0.80;;;;;;;25.49;38.22;100803.25;5026998;28;20040;-69
2022/08/02 10:35:50;;;;;;;4.30;0.80;;;;;;;25.39;37.92;100799.06;5001932;28;20512;-67
2022/08/02 10:38:57;;;;;;;2.70;1.15;;;;;;;25.22;38.55;100796.41;5012344;28;20449;-68
2022/08/02 10:42:00;;;;;;;3.05;0.90;;;;;;;24.91;40.29;100787.38;5012026;28;20560;-68
2022/08/02 10:45:13;;;;;;;3.72;0.77;;;;;;;24.99;39.51;100790.88;5011495;28;20064;-68
2022/08/02 10:48:17;;;;;;;2.90;1.00;;;;;;;25.18;37.82;100796.94;5012018;28;20049;-68
2022/08/02 10:51:20;;;;;;;2.45;0.80;;;;;;;25.21;37.74;100777.88;5011575;28;20048;-68
2022/08/02 10:54:32;;;;;;;3.35;0.77;;;;;;;25.10;39.11;100773.66;5011065;28;20088;-70
2022/08/02 10:57:35;;;;;;;4.00;0.70;;;;;;;25.03;39.00;100767.31;5011339;28;20100;-68
2022/08/02 11:00:39;;;;;;;3.92;0.90;;;;;;;25.11;39.93;100767.31;5011331;28;20406;-71
2022/08/02 11:03:44;;;;;;;2.30;0.95;;;;;;;25.20;40.28;100766.31;5021796;28;20125;-70
2022/08/02 11:07:06;;;;;;;6.10;0.80;;;;;;;25.14;38.39;100768.81;5011609;28;20217;-69
2022/08/02 11:10:29;;;;;;;1.98;0.88;;;;;;;25.19;38.85;100775.34;5010900;28;20118;-71
2022/08/02 11:14:13;;;;;;;2.47;0.63;;;;;;;25.29;37.97;100767.97;5011239;28;20072;-67
2022/08/02 11:17:18;;;;;;;2.42;0.80;;;;;;;25.38;37.04;100771.47;5011626;28;20056;-68
2022/08/02 11:20:24;;;;;;;3.28;0.82;;;;;;;25.22;37.57;100758.94;5010931;28;20521;-66
2022/08/02 11:23:38;;;;;;;4.97;0.93;;;;;;;25.49;37.35;100756.88;5010227;28;20358;-70
2022/08/02 11:26:43;;;;;;;2.80;1.10;;;;;;;25.61;37.50;100754.66;5010598;28;20052;-69
2022/08/02 11:29:50;;;;;;;5.40;0.95;;;;;;;25.72;36.78;100757.00;5010535;28;20060;-71
2022/08/02 11:32:58;;;;;;;3.85;0.90;;;;;;;25.58;36.92;100736.28;5010748;28;20461;-69
2022/08/02 11:36:04;;;;;;;2.83;0.93;;;;;;;25.59;36.86;100745.97;5013155;28;20061;-70
2022/08/02 11:39:10;;;;;;;2.55;1.00;;;;;;;26.06;36.66;100737.09;5011331;28;20129;-69
2022/08/02 11:42:13;;;;;;;2.38;0.88;;;;;;;26.00;37.04;100738.63;5009294;28;20180;-70
2022/08/02 11:45:25;;;;;;;2.17;0.70;;;;;;;26.01;36.87;100732.28;5010795;28;20103;-70
2022/08/02 11:48:47;;;;;;;3.50;1.17;;;;;;;26.00;35.79;100740.47;5010553;28;20097;-69
2022/08/02 11:52:05;;;;;;;4.65;1.30;;;;;;;25.90;36.03;100729.97;5010157;28;20056;-69
2022/08/02 11:55:10;;;;;;;4.25;0.80;;;;;;;26.03;36.75;100721.38;5010829;28;20048;-69
2022/08/02 11:58:38;;;;;;;1.55;0.70;;;;;;;26.49;34.96;100719.59;5010075;28;20048;-70
2022/08/02 12:01:43;;;;;;;2.25;0.70;;;;;;;26.66;35.22;100721.13;5009608;28;20121;-70
2022/08/02 12:04:59;;;;;;;1.95;0.82;;;;;;;27.05;34.41;100714.72;4998213;28;20049;-73
2022/08/02 12:08:05;;;;;;;4.85;0.88;;;;;;;26.89;34.53;100722.94;5003160;28;20088;-71
2022/08/02 12:11:21;;;;;;;1.70;0.80;;;;;;;26.69;35.26;100717.25;4989656;28;20100;-71
2022/08/02 12:14:27;;;;;;;1.67;0.82;;;;;;;26.75;35.01;100707.66;4989447;28;20385;-71
2022/08/02 12:20:57;;;;;;;3.45;0.73;;;;;;;26.63;35.28;100701.88;4991040;28;20097;-71
2022/08/02 12:24:00;;;;;;;3.95;0.80;;;;;;;26.59;34.47;100696.03;4990391;28;20144;-71
2022/08/02 12:27:06;;;;;;;4.75;1.00;;;;;;;26.69;34.82;100693.09;4990012;28;20053;-71
2022/08/02 12:30:13;;;;;;;3.88;1.05;;;;;;;26.77;34.97;100697.53;4990191;28;20077;-72
2022/08/02 12:33:19;;;;;;;3.72;0.93;;;;;;;26.87;34.96;100698.16;4990204;28;20168;-73
2022/08/02 12:36:26;;;;;;;2.53;1.00;;;;;;;27.30;33.11;100703.75;4990417;28;20410;-71
2022/08/02 12:39:48;;;;;;;1.50;0.70;;;;;;;27.52;32.56;100713.56;4989576;28;20045;-71
2022/08/02 12:42:57;;;;;;;4.37;0.90;;;;;;;27.82;31.18;100705.47;4977434;28;20544;-71
2022/08/02 12:46:33;;;;;;;4.47;0.73;;;;;;;28.01;31.22;100706.75;4989707;28;20151;-72
2022/08/02 12:50:28;;;;;;;4.22;1.02;;;;;;;27.47;33.02;100699.03;4989040;28;20053;-67
2022/08/02 12:53:33;;;;;;;4.07;0.80;;;;;;;27.16;34.50;100696.53;4989209;28;20049;-69
2022/08/02 12:56:38;;;;;;;5.72;0.90;;;;;;;27.90;33.31;100688.44;4989933;28;20049;-70
2022/08/02 12:59:47;;;;;;;3.03;0.90;;;;;;;28.09;32.87;100682.44;5023774;28;20106;-68
2022/08/02 13:02:52;;;;;;;3.38;1.00;;;;;;;28.52;30.11;100677.91;5028792;28;20087;-71
2022/08/02 13:05:57;;;;;;;1.92;0.95;;;;;;;28.78;29.37;100676.47;5028728;28;20417;-72
2022/08/02 13:09:10;;;;;;;2.53;0.82;;;;;;;28.93;29.09;100666.41;5028731;28;20055;-71
2022/08/02 13:12:13;;;;;;;1.80;0.70;;;;;;;29.00;29.58;100662.94;5028451;28;20044;-73
2022/08/02 13:15:17;;;;;;;1.90;0.70;;;;;;;29.26;29.90;100663.13;5028817;28;20049;-75
2022/08/02 13:18:21;;;;;;;1.80;0.82;;;;;;;29.28;29.12;100666.44;5017080;28;20044;-74
2022/08/02 13:21:25;;;;;;;2.05;0.80;;;;;;;29.47;29.00;100661.34;5028618;28;20512;-74
2022/08/02 13:24:28;;;;;;;2.67;1.08;;;;;;;29.57;29.67;100659.09;5028165;28;20044;-73
2022/08/02 13:27:32;;;;;;;3.08;0.98;;;;;;;29.68;29.45;100657.75;5028460;28;20643;-73
2022/08/02 13:30:37;;;;;;;4.10;0.80;;;;;;;29.96;29.06;100657.59;5028685;28;20084;-72
2022/08/02 13:33:40;;;;;;;5.22;0.77;;;;;;;30.20;28.04;100640.03;5029431;28;20188;-75
2022/08/02 13:36:44;;;;;;;4.25;1.13;;;;;;;30.46;27.61;100636.53;5028766;28;20053;-73
2022/08/02 13:39:47;;;;;;;2.33;0.93;;;;;;;30.65;26.89;100641.06;5028209;28;20071;-80
2022/08/02 13:42:51;;;;;;;1.60;0.80;;;;;;;30.92;27.64;100635.66;5028148;28;20764;-81
2022/08/02 13:45:54;;;;;;;3.25;1.30;;;;;;;30.98;26.25;100642.91;5017185;28;20457;-73
2022/08/02 13:48:58;;;;;;;2.10;0.88;;;;;;;31.09;26.64;100636.03;5008072;28;20690;-74
2022/08/02 13:52:01;;;;;;;3.50;0.75;;;;;;;31.21;25.80;100632.47;4987819;28;20097;-73
2022/08/02 13:55:06;;;;;;;1.88;0.80;;;;;;;31.67;26.04;100628.75;5003163;28;20057;-74
2022/08/02 13:58:09;;;;;;;5.38;1.00;;;;;;;32.37;25.26;100627.88;5007260;28;20049;-75
2022/08/02 14:01:14;;;;;;;2.63;0.80;;;;;;;32.87;24.47;100617.03;4985252;28;20072;-74
2022/08/02 14:04:17;;;;;;;2.22;0.98;;;;;;;33.86;24.29;100612.25;4996678;28;20049;-74
2022/08/02 14:07:21;;;;;;;4.07;0.98;;;;;;;34.67;22.42;100609.91;4989693;28;20077;-72
2022/08/02 14:10:25;;;;;;;2.70;0.90;;;;;;;34.71;22.52;100601.03;4988948;28;20413;-75
2022/08/02 14:13:28;;;;;;;3.83;1.00;;;;;;;35.86;21.55;100593.84;4989075;28;20084;-74
2022/08/02 14:16:31;;;;;;;4.20;1.10;;;;;;;37.13;19.38;100594.13;4989564;28;20049;-73
2022/08/02 14:19:35;;;;;;;2.05;0.80;;;;;;;36.15;20.22;100588.34;4989123;28;20048;-73
2022/08/02 14:22:38;;;;;;;1.90;0.70;;;;;;;34.74;21.01;100599.75;4989036;28;20342;-74
2022/08/02 14:25:43;;;;;;;2.58;0.70;;;;;;;33.54;22.87;100604.38;4988819;28;20185;-73
2022/08/02 14:28:46;;;;;;;2.35;0.90;;;;;;;33.55;22.85;100597.88;4988636;28;20050;-78
2022/08/02 14:31:51;;;;;;;3.53;1.05;;;;;;;32.08;24.31;100594.19;4988893;28;20053;-73